<?xml version="1.0" encoding="UTF-8" standalone="no" ?>
<gpx xmlns="http://www.topografix.com/GPX/1/1" xmlns:xsi="http://www.w3.org/2001/XMLSchema-instance" xsi:schemaLocation="http://www.topografix.com/GPX/1/1 http://www.topografix.com/GPX/1/1/gpx.xsd" version="1.1" creator="VisuGPX - https://www.visugpx.com">
  <metadata>
    <name>2025-02-24-46-Crayssac-Le cap del bosc</name>
    <desc><![CDATA[randonnée de 9,2 km pour environ 160m de dénivelé positif. Après avoir traversé le village vous monterez tranquillement jusqu'au point de vue au dessus de la cévenne de Crayssac avec son paysage à 180° sur la vallée. Vous déambulerez ensuite sur des chemins en sous bois bordés de murs en pierres sèches à la rencontre de nombreuses gariottes.]]></desc>
  </metadata>
  <trk>
    <name><![CDATA[Rando Crayssac du 24-02-2025-20748767]]></name>
    <trkseg>
      <trkpt lat="44.51078" lon="1.32872">
        <ele>229</ele>
        <time>2025-02-21T15:45:11Z</time>
      </trkpt>
      <trkpt lat="44.51079" lon="1.3287">
        <ele>229</ele>
        <time>2025-02-21T15:45:13Z</time>
      </trkpt>
      <trkpt lat="44.51076" lon="1.32869">
        <ele>229</ele>
        <time>2025-02-21T15:45:17Z</time>
      </trkpt>
      <trkpt lat="44.51075" lon="1.32874">
        <ele>229</ele>
        <time>2025-02-21T15:45:22Z</time>
      </trkpt>
      <trkpt lat="44.51068" lon="1.32872">
        <ele>229</ele>
        <time>2025-02-21T15:45:32Z</time>
      </trkpt>
      <trkpt lat="44.5106" lon="1.32865">
        <ele>229</ele>
        <time>2025-02-21T15:45:44Z</time>
      </trkpt>
      <trkpt lat="44.51053" lon="1.32863">
        <ele>229</ele>
        <time>2025-02-21T15:45:54Z</time>
      </trkpt>
      <trkpt lat="44.51053" lon="1.3286">
        <ele>229</ele>
        <time>2025-02-21T15:45:57Z</time>
      </trkpt>
      <trkpt lat="44.51058" lon="1.32865">
        <ele>229</ele>
        <time>2025-02-21T15:46:05Z</time>
      </trkpt>
      <trkpt lat="44.51053" lon="1.32862">
        <ele>229</ele>
        <time>2025-02-21T15:46:12Z</time>
      </trkpt>
      <trkpt lat="44.51043" lon="1.3285">
        <ele>229</ele>
        <time>2025-02-21T15:46:30Z</time>
      </trkpt>
      <trkpt lat="44.51023" lon="1.32842">
        <ele>229</ele>
        <time>2025-02-21T15:46:58Z</time>
      </trkpt>
      <trkpt lat="44.51022" lon="1.32833">
        <ele>229</ele>
        <time>2025-02-21T15:47:06Z</time>
      </trkpt>
      <trkpt lat="44.51022" lon="1.32834">
        <ele>229</ele>
        <time>2025-02-21T15:47:07Z</time>
      </trkpt>
      <trkpt lat="44.50998" lon="1.32829">
        <ele>230</ele>
        <time>2025-02-21T15:47:40Z</time>
      </trkpt>
      <trkpt lat="44.50979" lon="1.32819">
        <ele>230</ele>
        <time>2025-02-21T15:48:07Z</time>
      </trkpt>
      <trkpt lat="44.50961" lon="1.328">
        <ele>228</ele>
        <time>2025-02-21T15:48:37Z</time>
      </trkpt>
      <trkpt lat="44.50956" lon="1.32773">
        <ele>227</ele>
        <time>2025-02-21T15:49:03Z</time>
      </trkpt>
      <trkpt lat="44.50952" lon="1.32735">
        <ele>226</ele>
        <time>2025-02-21T15:49:40Z</time>
      </trkpt>
      <trkpt lat="44.50954" lon="1.32708">
        <ele>228</ele>
        <time>2025-02-21T15:50:06Z</time>
      </trkpt>
      <trkpt lat="44.50959" lon="1.32681">
        <ele>230</ele>
        <time>2025-02-21T15:50:32Z</time>
      </trkpt>
      <trkpt lat="44.50978" lon="1.32633">
        <ele>237</ele>
        <time>2025-02-21T15:51:25Z</time>
      </trkpt>
      <trkpt lat="44.50983" lon="1.32615">
        <ele>239</ele>
        <time>2025-02-21T15:51:43Z</time>
      </trkpt>
      <trkpt lat="44.50988" lon="1.32578">
        <ele>244</ele>
        <time>2025-02-21T15:52:19Z</time>
      </trkpt>
      <trkpt lat="44.50986" lon="1.32555">
        <ele>247</ele>
        <time>2025-02-21T15:52:41Z</time>
      </trkpt>
      <trkpt lat="44.5098" lon="1.32542">
        <ele>249</ele>
        <time>2025-02-21T15:52:56Z</time>
      </trkpt>
      <trkpt lat="44.50966" lon="1.32524">
        <ele>251</ele>
        <time>2025-02-21T15:53:21Z</time>
      </trkpt>
      <trkpt lat="44.50959" lon="1.32511">
        <ele>253</ele>
        <time>2025-02-21T15:53:36Z</time>
      </trkpt>
      <trkpt lat="44.50924" lon="1.32476">
        <ele>259</ele>
        <time>2025-02-21T15:54:34Z</time>
      </trkpt>
      <trkpt lat="44.50912" lon="1.32466">
        <ele>262</ele>
        <time>2025-02-21T15:54:52Z</time>
      </trkpt>
      <trkpt lat="44.50879" lon="1.32453">
        <ele>264</ele>
        <time>2025-02-21T15:55:38Z</time>
      </trkpt>
      <trkpt lat="44.50792" lon="1.32439">
        <ele>266</ele>
        <time>2025-02-21T15:57:35Z</time>
      </trkpt>
      <trkpt lat="44.5073" lon="1.32433">
        <ele>263</ele>
        <time>2025-02-21T15:58:58Z</time>
      </trkpt>
      <trkpt lat="44.50713" lon="1.32421">
        <ele>263</ele>
        <time>2025-02-21T15:59:23Z</time>
      </trkpt>
      <trkpt lat="44.50697" lon="1.32406">
        <ele>264</ele>
        <time>2025-02-21T15:59:49Z</time>
      </trkpt>
      <trkpt lat="44.5068" lon="1.32386">
        <ele>264</ele>
        <time>2025-02-21T16:00:19Z</time>
      </trkpt>
      <trkpt lat="44.50667" lon="1.32375">
        <ele>265</ele>
        <time>2025-02-21T16:00:39Z</time>
      </trkpt>
      <trkpt lat="44.50621" lon="1.32351">
        <ele>255</ele>
        <time>2025-02-21T16:01:44Z</time>
      </trkpt>
      <trkpt lat="44.50602" lon="1.32336">
        <ele>255</ele>
        <time>2025-02-21T16:02:13Z</time>
      </trkpt>
      <trkpt lat="44.50589" lon="1.32316">
        <ele>254</ele>
        <time>2025-02-21T16:02:39Z</time>
      </trkpt>
      <trkpt lat="44.50583" lon="1.32292">
        <ele>255</ele>
        <time>2025-02-21T16:03:03Z</time>
      </trkpt>
      <trkpt lat="44.50573" lon="1.32265">
        <ele>254</ele>
        <time>2025-02-21T16:03:32Z</time>
      </trkpt>
      <trkpt lat="44.50554" lon="1.32184">
        <ele>253</ele>
        <time>2025-02-21T16:04:54Z</time>
      </trkpt>
      <trkpt lat="44.50542" lon="1.32163">
        <ele>253</ele>
        <time>2025-02-21T16:05:19Z</time>
      </trkpt>
      <trkpt lat="44.50526" lon="1.32161">
        <ele>253</ele>
        <time>2025-02-21T16:05:41Z</time>
      </trkpt>
      <trkpt lat="44.50516" lon="1.32157">
        <ele>253</ele>
        <time>2025-02-21T16:05:54Z</time>
      </trkpt>
      <trkpt lat="44.50501" lon="1.32155">
        <ele>253</ele>
        <time>2025-02-21T16:06:15Z</time>
      </trkpt>
      <trkpt lat="44.50462" lon="1.32173">
        <ele>250</ele>
        <time>2025-02-21T16:07:09Z</time>
      </trkpt>
      <trkpt lat="44.50445" lon="1.32178">
        <ele>248</ele>
        <time>2025-02-21T16:07:33Z</time>
      </trkpt>
      <trkpt lat="44.50419" lon="1.3219">
        <ele>245</ele>
        <time>2025-02-21T16:08:09Z</time>
      </trkpt>
      <trkpt lat="44.50393" lon="1.32196">
        <ele>244</ele>
        <time>2025-02-21T16:08:44Z</time>
      </trkpt>
      <trkpt lat="44.50364" lon="1.32194">
        <ele>245</ele>
        <time>2025-02-21T16:09:23Z</time>
      </trkpt>
      <trkpt lat="44.50319" lon="1.32207">
        <ele>239</ele>
        <time>2025-02-21T16:10:24Z</time>
      </trkpt>
      <trkpt lat="44.50299" lon="1.32207">
        <ele>234</ele>
        <time>2025-02-21T16:10:51Z</time>
      </trkpt>
      <trkpt lat="44.50284" lon="1.32205">
        <ele>230</ele>
        <time>2025-02-21T16:11:11Z</time>
      </trkpt>
      <trkpt lat="44.50273" lon="1.32207">
        <ele>227</ele>
        <time>2025-02-21T16:11:26Z</time>
      </trkpt>
      <trkpt lat="44.50268" lon="1.32201">
        <ele>226</ele>
        <time>2025-02-21T16:11:35Z</time>
      </trkpt>
      <trkpt lat="44.50268" lon="1.32199">
        <ele>226</ele>
        <time>2025-02-21T16:11:37Z</time>
      </trkpt>
      <trkpt lat="44.50276" lon="1.32192">
        <ele>229</ele>
        <time>2025-02-21T16:11:49Z</time>
      </trkpt>
      <trkpt lat="44.50278" lon="1.32184">
        <ele>231</ele>
        <time>2025-02-21T16:11:57Z</time>
      </trkpt>
      <trkpt lat="44.50277" lon="1.32175">
        <ele>231</ele>
        <time>2025-02-21T16:12:06Z</time>
      </trkpt>
      <trkpt lat="44.50281" lon="1.32156">
        <ele>233</ele>
        <time>2025-02-21T16:12:25Z</time>
      </trkpt>
      <trkpt lat="44.50278" lon="1.32136">
        <ele>233</ele>
        <time>2025-02-21T16:12:44Z</time>
      </trkpt>
      <trkpt lat="44.5028" lon="1.32133">
        <ele>233</ele>
        <time>2025-02-21T16:12:48Z</time>
      </trkpt>
      <trkpt lat="44.50277" lon="1.32124">
        <ele>232</ele>
        <time>2025-02-21T16:12:58Z</time>
      </trkpt>
      <trkpt lat="44.50278" lon="1.32127">
        <ele>233</ele>
        <time>2025-02-21T16:13:01Z</time>
      </trkpt>
      <trkpt lat="44.50277" lon="1.32124">
        <ele>232</ele>
        <time>2025-02-21T16:13:04Z</time>
      </trkpt>
      <trkpt lat="44.50281" lon="1.32121">
        <ele>234</ele>
        <time>2025-02-21T16:13:10Z</time>
      </trkpt>
      <trkpt lat="44.50279" lon="1.32117">
        <ele>233</ele>
        <time>2025-02-21T16:13:15Z</time>
      </trkpt>
      <trkpt lat="44.50286" lon="1.32109">
        <ele>237</ele>
        <time>2025-02-21T16:13:27Z</time>
      </trkpt>
      <trkpt lat="44.50285" lon="1.32101">
        <ele>236</ele>
        <time>2025-02-21T16:13:34Z</time>
      </trkpt>
      <trkpt lat="44.5029" lon="1.32103">
        <ele>239</ele>
        <time>2025-02-21T16:13:41Z</time>
      </trkpt>
      <trkpt lat="44.50291" lon="1.32106">
        <ele>239</ele>
        <time>2025-02-21T16:13:44Z</time>
      </trkpt>
      <trkpt lat="44.50294" lon="1.32103">
        <ele>240</ele>
        <time>2025-02-21T16:13:49Z</time>
      </trkpt>
      <trkpt lat="44.50293" lon="1.32099">
        <ele>240</ele>
        <time>2025-02-21T16:13:53Z</time>
      </trkpt>
      <trkpt lat="44.50294" lon="1.32091">
        <ele>241</ele>
        <time>2025-02-21T16:14:01Z</time>
      </trkpt>
      <trkpt lat="44.50295" lon="1.32092">
        <ele>241</ele>
        <time>2025-02-21T16:14:03Z</time>
      </trkpt>
      <trkpt lat="44.50298" lon="1.32073">
        <ele>243</ele>
        <time>2025-02-21T16:14:21Z</time>
      </trkpt>
      <trkpt lat="44.50299" lon="1.32059">
        <ele>243</ele>
        <time>2025-02-21T16:14:35Z</time>
      </trkpt>
      <trkpt lat="44.50295" lon="1.32024">
        <ele>240</ele>
        <time>2025-02-21T16:15:08Z</time>
      </trkpt>
      <trkpt lat="44.50296" lon="1.31983">
        <ele>240</ele>
        <time>2025-02-21T16:15:47Z</time>
      </trkpt>
      <trkpt lat="44.50298" lon="1.31943">
        <ele>243</ele>
        <time>2025-02-21T16:16:26Z</time>
      </trkpt>
      <trkpt lat="44.50297" lon="1.31907">
        <ele>244</ele>
        <time>2025-02-21T16:17:00Z</time>
      </trkpt>
      <trkpt lat="44.50296" lon="1.31885">
        <ele>243</ele>
        <time>2025-02-21T16:17:21Z</time>
      </trkpt>
      <trkpt lat="44.50296" lon="1.31868">
        <ele>243</ele>
        <time>2025-02-21T16:17:37Z</time>
      </trkpt>
      <trkpt lat="44.503" lon="1.31853">
        <ele>245</ele>
        <time>2025-02-21T16:17:52Z</time>
      </trkpt>
      <trkpt lat="44.50299" lon="1.31827">
        <ele>245</ele>
        <time>2025-02-21T16:18:17Z</time>
      </trkpt>
      <trkpt lat="44.50294" lon="1.31793">
        <ele>245</ele>
        <time>2025-02-21T16:18:50Z</time>
      </trkpt>
      <trkpt lat="44.50287" lon="1.31757">
        <ele>245</ele>
        <time>2025-02-21T16:19:26Z</time>
      </trkpt>
      <trkpt lat="44.50283" lon="1.31728">
        <ele>245</ele>
        <time>2025-02-21T16:19:54Z</time>
      </trkpt>
      <trkpt lat="44.50276" lon="1.31693">
        <ele>244</ele>
        <time>2025-02-21T16:20:28Z</time>
      </trkpt>
      <trkpt lat="44.50265" lon="1.31658">
        <ele>243</ele>
        <time>2025-02-21T16:21:05Z</time>
      </trkpt>
      <trkpt lat="44.50252" lon="1.31624">
        <ele>244</ele>
        <time>2025-02-21T16:21:41Z</time>
      </trkpt>
      <trkpt lat="44.5025" lon="1.31599">
        <ele>246</ele>
        <time>2025-02-21T16:22:05Z</time>
      </trkpt>
      <trkpt lat="44.5025" lon="1.31586">
        <ele>247</ele>
        <time>2025-02-21T16:22:18Z</time>
      </trkpt>
      <trkpt lat="44.50253" lon="1.31581">
        <ele>247</ele>
        <time>2025-02-21T16:22:24Z</time>
      </trkpt>
      <trkpt lat="44.50257" lon="1.31577">
        <ele>248</ele>
        <time>2025-02-21T16:22:31Z</time>
      </trkpt>
      <trkpt lat="44.5026" lon="1.31576">
        <ele>248</ele>
        <time>2025-02-21T16:22:35Z</time>
      </trkpt>
      <trkpt lat="44.50266" lon="1.31569">
        <ele>249</ele>
        <time>2025-02-21T16:22:45Z</time>
      </trkpt>
      <trkpt lat="44.50269" lon="1.3156">
        <ele>249</ele>
        <time>2025-02-21T16:22:55Z</time>
      </trkpt>
      <trkpt lat="44.50287" lon="1.31526">
        <ele>253</ele>
        <time>2025-02-21T16:23:35Z</time>
      </trkpt>
      <trkpt lat="44.50291" lon="1.3152">
        <ele>253</ele>
        <time>2025-02-21T16:23:43Z</time>
      </trkpt>
      <trkpt lat="44.50295" lon="1.31518">
        <ele>254</ele>
        <time>2025-02-21T16:23:48Z</time>
      </trkpt>
      <trkpt lat="44.503" lon="1.31512">
        <ele>255</ele>
        <time>2025-02-21T16:23:57Z</time>
      </trkpt>
      <trkpt lat="44.50304" lon="1.31493">
        <ele>256</ele>
        <time>2025-02-21T16:24:16Z</time>
      </trkpt>
      <trkpt lat="44.50316" lon="1.31476">
        <ele>257</ele>
        <time>2025-02-21T16:24:39Z</time>
      </trkpt>
      <trkpt lat="44.50334" lon="1.3147">
        <ele>259</ele>
        <time>2025-02-21T16:25:03Z</time>
      </trkpt>
      <trkpt lat="44.50351" lon="1.31467">
        <ele>259</ele>
        <time>2025-02-21T16:25:26Z</time>
      </trkpt>
      <trkpt lat="44.50399" lon="1.31454">
        <ele>260</ele>
        <time>2025-02-21T16:26:32Z</time>
      </trkpt>
      <trkpt lat="44.5041" lon="1.31445">
        <ele>261</ele>
        <time>2025-02-21T16:26:49Z</time>
      </trkpt>
      <trkpt lat="44.50423" lon="1.31427">
        <ele>261</ele>
        <time>2025-02-21T16:27:13Z</time>
      </trkpt>
      <trkpt lat="44.50426" lon="1.31403">
        <ele>262</ele>
        <time>2025-02-21T16:27:36Z</time>
      </trkpt>
      <trkpt lat="44.50425" lon="1.31382">
        <ele>264</ele>
        <time>2025-02-21T16:27:56Z</time>
      </trkpt>
      <trkpt lat="44.50431" lon="1.31338">
        <ele>266</ele>
        <time>2025-02-21T16:28:39Z</time>
      </trkpt>
      <trkpt lat="44.50432" lon="1.31309">
        <ele>266</ele>
        <time>2025-02-21T16:29:06Z</time>
      </trkpt>
      <trkpt lat="44.5043" lon="1.31272">
        <ele>266</ele>
        <time>2025-02-21T16:29:42Z</time>
      </trkpt>
      <trkpt lat="44.50432" lon="1.31258">
        <ele>266</ele>
        <time>2025-02-21T16:29:55Z</time>
      </trkpt>
      <trkpt lat="44.50431" lon="1.31246">
        <ele>266</ele>
        <time>2025-02-21T16:30:07Z</time>
      </trkpt>
      <trkpt lat="44.50436" lon="1.3121">
        <ele>265</ele>
        <time>2025-02-21T16:30:42Z</time>
      </trkpt>
      <trkpt lat="44.50449" lon="1.3118">
        <ele>266</ele>
        <time>2025-02-21T16:31:15Z</time>
      </trkpt>
      <trkpt lat="44.50457" lon="1.31166">
        <ele>267</ele>
        <time>2025-02-21T16:31:32Z</time>
      </trkpt>
      <trkpt lat="44.5047" lon="1.3115">
        <ele>270</ele>
        <time>2025-02-21T16:31:55Z</time>
      </trkpt>
      <trkpt lat="44.50477" lon="1.31133">
        <ele>273</ele>
        <time>2025-02-21T16:32:14Z</time>
      </trkpt>
      <trkpt lat="44.50476" lon="1.31112">
        <ele>274</ele>
        <time>2025-02-21T16:32:34Z</time>
      </trkpt>
      <trkpt lat="44.50472" lon="1.31092">
        <ele>276</ele>
        <time>2025-02-21T16:32:54Z</time>
      </trkpt>
      <trkpt lat="44.50465" lon="1.31073">
        <ele>276</ele>
        <time>2025-02-21T16:33:14Z</time>
      </trkpt>
      <trkpt lat="44.50452" lon="1.31024">
        <ele>277</ele>
        <time>2025-02-21T16:34:04Z</time>
      </trkpt>
      <trkpt lat="44.50445" lon="1.31005">
        <ele>277</ele>
        <time>2025-02-21T16:34:24Z</time>
      </trkpt>
      <trkpt lat="44.50437" lon="1.30954">
        <ele>281</ele>
        <time>2025-02-21T16:35:14Z</time>
      </trkpt>
      <trkpt lat="44.50436" lon="1.30932">
        <ele>282</ele>
        <time>2025-02-21T16:35:35Z</time>
      </trkpt>
      <trkpt lat="44.50438" lon="1.30911">
        <ele>284</ele>
        <time>2025-02-21T16:35:55Z</time>
      </trkpt>
      <trkpt lat="44.50437" lon="1.30881">
        <ele>285</ele>
        <time>2025-02-21T16:36:24Z</time>
      </trkpt>
      <trkpt lat="44.5044" lon="1.30843">
        <ele>286</ele>
        <time>2025-02-21T16:37:00Z</time>
      </trkpt>
      <trkpt lat="44.50437" lon="1.30825">
        <ele>287</ele>
        <time>2025-02-21T16:37:18Z</time>
      </trkpt>
      <trkpt lat="44.50433" lon="1.30811">
        <ele>287</ele>
        <time>2025-02-21T16:37:32Z</time>
      </trkpt>
      <trkpt lat="44.50406" lon="1.30749">
        <ele>287</ele>
        <time>2025-02-21T16:38:41Z</time>
      </trkpt>
      <trkpt lat="44.50399" lon="1.30728">
        <ele>286</ele>
        <time>2025-02-21T16:39:03Z</time>
      </trkpt>
      <trkpt lat="44.50389" lon="1.30709">
        <ele>285</ele>
        <time>2025-02-21T16:39:26Z</time>
      </trkpt>
      <trkpt lat="44.50379" lon="1.30683">
        <ele>283</ele>
        <time>2025-02-21T16:39:54Z</time>
      </trkpt>
      <trkpt lat="44.50373" lon="1.3066">
        <ele>282</ele>
        <time>2025-02-21T16:40:17Z</time>
      </trkpt>
      <trkpt lat="44.50372" lon="1.30638">
        <ele>281</ele>
        <time>2025-02-21T16:40:38Z</time>
      </trkpt>
      <trkpt lat="44.50376" lon="1.30642">
        <ele>281</ele>
        <time>2025-02-21T16:40:45Z</time>
      </trkpt>
      <trkpt lat="44.50373" lon="1.30636">
        <ele>281</ele>
        <time>2025-02-21T16:40:52Z</time>
      </trkpt>
      <trkpt lat="44.50373" lon="1.30624">
        <ele>280</ele>
        <time>2025-02-21T16:41:03Z</time>
      </trkpt>
      <trkpt lat="44.50386" lon="1.3057">
        <ele>279</ele>
        <time>2025-02-21T16:41:57Z</time>
      </trkpt>
      <trkpt lat="44.50393" lon="1.30513">
        <ele>279</ele>
        <time>2025-02-21T16:42:52Z</time>
      </trkpt>
      <trkpt lat="44.50397" lon="1.30449">
        <ele>279</ele>
        <time>2025-02-21T16:43:53Z</time>
      </trkpt>
      <trkpt lat="44.50398" lon="1.30441">
        <ele>279</ele>
        <time>2025-02-21T16:44:01Z</time>
      </trkpt>
      <trkpt lat="44.50401" lon="1.30437">
        <ele>279</ele>
        <time>2025-02-21T16:44:07Z</time>
      </trkpt>
      <trkpt lat="44.50418" lon="1.30452">
        <ele>279</ele>
        <time>2025-02-21T16:44:34Z</time>
      </trkpt>
      <trkpt lat="44.50433" lon="1.30473">
        <ele>278</ele>
        <time>2025-02-21T16:45:02Z</time>
      </trkpt>
      <trkpt lat="44.50465" lon="1.30535">
        <ele>278</ele>
        <time>2025-02-21T16:46:15Z</time>
      </trkpt>
      <trkpt lat="44.50512" lon="1.30612">
        <ele>278</ele>
        <time>2025-02-21T16:47:51Z</time>
      </trkpt>
      <trkpt lat="44.50532" lon="1.30648">
        <ele>278</ele>
        <time>2025-02-21T16:48:35Z</time>
      </trkpt>
      <trkpt lat="44.50545" lon="1.30667">
        <ele>279</ele>
        <time>2025-02-21T16:49:00Z</time>
      </trkpt>
      <trkpt lat="44.50557" lon="1.30691">
        <ele>279</ele>
        <time>2025-02-21T16:49:27Z</time>
      </trkpt>
      <trkpt lat="44.50577" lon="1.30713">
        <ele>279</ele>
        <time>2025-02-21T16:50:01Z</time>
      </trkpt>
      <trkpt lat="44.50615" lon="1.30742">
        <ele>279</ele>
        <time>2025-02-21T16:50:59Z</time>
      </trkpt>
      <trkpt lat="44.50649" lon="1.30752">
        <ele>280</ele>
        <time>2025-02-21T16:51:45Z</time>
      </trkpt>
      <trkpt lat="44.50669" lon="1.30755">
        <ele>280</ele>
        <time>2025-02-21T16:52:12Z</time>
      </trkpt>
      <trkpt lat="44.50754" lon="1.30759">
        <ele>280</ele>
        <time>2025-02-21T16:54:06Z</time>
      </trkpt>
      <trkpt lat="44.50857" lon="1.3076">
        <ele>283</ele>
        <time>2025-02-21T16:56:23Z</time>
      </trkpt>
      <trkpt lat="44.50896" lon="1.3075">
        <ele>285</ele>
        <time>2025-02-21T16:57:16Z</time>
      </trkpt>
      <trkpt lat="44.50979" lon="1.3072">
        <ele>285</ele>
        <time>2025-02-21T16:59:11Z</time>
      </trkpt>
      <trkpt lat="44.50998" lon="1.3071">
        <ele>285</ele>
        <time>2025-02-21T16:59:38Z</time>
      </trkpt>
      <trkpt lat="44.51" lon="1.30702">
        <ele>286</ele>
        <time>2025-02-21T16:59:46Z</time>
      </trkpt>
      <trkpt lat="44.50995" lon="1.3068">
        <ele>287</ele>
        <time>2025-02-21T17:00:08Z</time>
      </trkpt>
      <trkpt lat="44.50991" lon="1.30631">
        <ele>286</ele>
        <time>2025-02-21T17:00:55Z</time>
      </trkpt>
      <trkpt lat="44.50984" lon="1.30611">
        <ele>285</ele>
        <time>2025-02-21T17:01:16Z</time>
      </trkpt>
      <trkpt lat="44.5098" lon="1.30591">
        <ele>283</ele>
        <time>2025-02-21T17:01:36Z</time>
      </trkpt>
      <trkpt lat="44.50976" lon="1.30537">
        <ele>281</ele>
        <time>2025-02-21T17:02:27Z</time>
      </trkpt>
      <trkpt lat="44.50968" lon="1.30485">
        <ele>279</ele>
        <time>2025-02-21T17:03:18Z</time>
      </trkpt>
      <trkpt lat="44.50951" lon="1.30425">
        <ele>276</ele>
        <time>2025-02-21T17:04:19Z</time>
      </trkpt>
      <trkpt lat="44.50943" lon="1.30384">
        <ele>276</ele>
        <time>2025-02-21T17:05:00Z</time>
      </trkpt>
      <trkpt lat="44.50937" lon="1.30364">
        <ele>276</ele>
        <time>2025-02-21T17:05:20Z</time>
      </trkpt>
      <trkpt lat="44.50926" lon="1.30332">
        <ele>277</ele>
        <time>2025-02-21T17:05:54Z</time>
      </trkpt>
      <trkpt lat="44.50906" lon="1.30286">
        <ele>280</ele>
        <time>2025-02-21T17:06:45Z</time>
      </trkpt>
      <trkpt lat="44.50894" lon="1.30272">
        <ele>281</ele>
        <time>2025-02-21T17:07:06Z</time>
      </trkpt>
      <trkpt lat="44.50869" lon="1.30248">
        <ele>283</ele>
        <time>2025-02-21T17:07:47Z</time>
      </trkpt>
      <trkpt lat="44.50849" lon="1.30223">
        <ele>285</ele>
        <time>2025-02-21T17:08:23Z</time>
      </trkpt>
      <trkpt lat="44.50843" lon="1.30218">
        <ele>285</ele>
        <time>2025-02-21T17:08:32Z</time>
      </trkpt>
      <trkpt lat="44.50826" lon="1.30209">
        <ele>285</ele>
        <time>2025-02-21T17:08:56Z</time>
      </trkpt>
      <trkpt lat="44.50824" lon="1.3021">
        <ele>285</ele>
        <time>2025-02-21T17:08:59Z</time>
      </trkpt>
      <trkpt lat="44.50815" lon="1.30204">
        <ele>285</ele>
        <time>2025-02-21T17:09:12Z</time>
      </trkpt>
      <trkpt lat="44.5078" lon="1.30177">
        <ele>286</ele>
        <time>2025-02-21T17:10:06Z</time>
      </trkpt>
      <trkpt lat="44.5076" lon="1.30136">
        <ele>288</ele>
        <time>2025-02-21T17:10:53Z</time>
      </trkpt>
      <trkpt lat="44.50735" lon="1.30093">
        <ele>289</ele>
        <time>2025-02-21T17:11:46Z</time>
      </trkpt>
      <trkpt lat="44.50686" lon="1.30037">
        <ele>289</ele>
        <time>2025-02-21T17:13:10Z</time>
      </trkpt>
      <trkpt lat="44.50675" lon="1.30019">
        <ele>290</ele>
        <time>2025-02-21T17:13:33Z</time>
      </trkpt>
      <trkpt lat="44.50647" lon="1.29983">
        <ele>291</ele>
        <time>2025-02-21T17:14:23Z</time>
      </trkpt>
      <trkpt lat="44.50633" lon="1.29962">
        <ele>289</ele>
        <time>2025-02-21T17:14:51Z</time>
      </trkpt>
      <trkpt lat="44.50624" lon="1.29942">
        <ele>288</ele>
        <time>2025-02-21T17:15:13Z</time>
      </trkpt>
      <trkpt lat="44.50609" lon="1.29895">
        <ele>286</ele>
        <time>2025-02-21T17:16:02Z</time>
      </trkpt>
      <trkpt lat="44.50591" lon="1.29855">
        <ele>282</ele>
        <time>2025-02-21T17:16:47Z</time>
      </trkpt>
      <trkpt lat="44.50623" lon="1.29828">
        <ele>281</ele>
        <time>2025-02-21T17:17:37Z</time>
      </trkpt>
      <trkpt lat="44.50664" lon="1.29809">
        <ele>282</ele>
        <time>2025-02-21T17:18:35Z</time>
      </trkpt>
      <trkpt lat="44.50701" lon="1.29809">
        <ele>281</ele>
        <time>2025-02-21T17:19:24Z</time>
      </trkpt>
      <trkpt lat="44.50741" lon="1.29815">
        <ele>281</ele>
        <time>2025-02-21T17:20:18Z</time>
      </trkpt>
      <trkpt lat="44.50795" lon="1.29824">
        <ele>280</ele>
        <time>2025-02-21T17:21:30Z</time>
      </trkpt>
      <trkpt lat="44.50826" lon="1.29852">
        <ele>280</ele>
        <time>2025-02-21T17:22:19Z</time>
      </trkpt>
      <trkpt lat="44.50857" lon="1.29878">
        <ele>277</ele>
        <time>2025-02-21T17:23:08Z</time>
      </trkpt>
      <trkpt lat="44.50891" lon="1.29906">
        <ele>275</ele>
        <time>2025-02-21T17:24:00Z</time>
      </trkpt>
      <trkpt lat="44.50927" lon="1.29915">
        <ele>274</ele>
        <time>2025-02-21T17:24:49Z</time>
      </trkpt>
      <trkpt lat="44.50962" lon="1.29917">
        <ele>273</ele>
        <time>2025-02-21T17:25:36Z</time>
      </trkpt>
      <trkpt lat="44.50988" lon="1.29919">
        <ele>273</ele>
        <time>2025-02-21T17:26:10Z</time>
      </trkpt>
      <trkpt lat="44.51014" lon="1.29902">
        <ele>271</ele>
        <time>2025-02-21T17:26:49Z</time>
      </trkpt>
      <trkpt lat="44.51066" lon="1.29891">
        <ele>266</ele>
        <time>2025-02-21T17:27:59Z</time>
      </trkpt>
      <trkpt lat="44.51088" lon="1.29899">
        <ele>265</ele>
        <time>2025-02-21T17:28:29Z</time>
      </trkpt>
      <trkpt lat="44.51113" lon="1.29906">
        <ele>264</ele>
        <time>2025-02-21T17:29:03Z</time>
      </trkpt>
      <trkpt lat="44.51136" lon="1.29919">
        <ele>263</ele>
        <time>2025-02-21T17:29:36Z</time>
      </trkpt>
      <trkpt lat="44.51162" lon="1.29921">
        <ele>261</ele>
        <time>2025-02-21T17:30:11Z</time>
      </trkpt>
      <trkpt lat="44.51185" lon="1.29919">
        <ele>261</ele>
        <time>2025-02-21T17:30:42Z</time>
      </trkpt>
      <trkpt lat="44.51208" lon="1.29912">
        <ele>261</ele>
        <time>2025-02-21T17:31:13Z</time>
      </trkpt>
      <trkpt lat="44.51228" lon="1.29919">
        <ele>260</ele>
        <time>2025-02-21T17:31:41Z</time>
      </trkpt>
      <trkpt lat="44.51257" lon="1.29919">
        <ele>259</ele>
        <time>2025-02-21T17:32:20Z</time>
      </trkpt>
      <trkpt lat="44.51282" lon="1.2991">
        <ele>259</ele>
        <time>2025-02-21T17:32:54Z</time>
      </trkpt>
      <trkpt lat="44.51321" lon="1.29895">
        <ele>257</ele>
        <time>2025-02-21T17:33:48Z</time>
      </trkpt>
      <trkpt lat="44.51373" lon="1.29899">
        <ele>253</ele>
        <time>2025-02-21T17:34:57Z</time>
      </trkpt>
      <trkpt lat="44.51377" lon="1.30013">
        <ele>249</ele>
        <time>2025-02-21T17:36:46Z</time>
      </trkpt>
      <trkpt lat="44.51382" lon="1.3004">
        <ele>249</ele>
        <time>2025-02-21T17:37:13Z</time>
      </trkpt>
      <trkpt lat="44.51393" lon="1.30079">
        <ele>249</ele>
        <time>2025-02-21T17:37:52Z</time>
      </trkpt>
      <trkpt lat="44.51392" lon="1.30082">
        <ele>249</ele>
        <time>2025-02-21T17:37:56Z</time>
      </trkpt>
      <trkpt lat="44.51395" lon="1.30154">
        <ele>253</ele>
        <time>2025-02-21T17:39:04Z</time>
      </trkpt>
      <trkpt lat="44.51398" lon="1.3018">
        <ele>255</ele>
        <time>2025-02-21T17:39:29Z</time>
      </trkpt>
      <trkpt lat="44.51397" lon="1.30201">
        <ele>257</ele>
        <time>2025-02-21T17:39:49Z</time>
      </trkpt>
      <trkpt lat="44.5139" lon="1.30254">
        <ele>260</ele>
        <time>2025-02-21T17:40:41Z</time>
      </trkpt>
      <trkpt lat="44.5138" lon="1.30306">
        <ele>263</ele>
        <time>2025-02-21T17:41:32Z</time>
      </trkpt>
      <trkpt lat="44.51378" lon="1.30327">
        <ele>264</ele>
        <time>2025-02-21T17:41:52Z</time>
      </trkpt>
      <trkpt lat="44.51379" lon="1.30351">
        <ele>266</ele>
        <time>2025-02-21T17:42:15Z</time>
      </trkpt>
      <trkpt lat="44.51378" lon="1.30385">
        <ele>269</ele>
        <time>2025-02-21T17:42:47Z</time>
      </trkpt>
      <trkpt lat="44.51375" lon="1.30412">
        <ele>271</ele>
        <time>2025-02-21T17:43:13Z</time>
      </trkpt>
      <trkpt lat="44.51363" lon="1.3046">
        <ele>272</ele>
        <time>2025-02-21T17:44:02Z</time>
      </trkpt>
      <trkpt lat="44.51361" lon="1.30482">
        <ele>274</ele>
        <time>2025-02-21T17:44:23Z</time>
      </trkpt>
      <trkpt lat="44.51362" lon="1.30541">
        <ele>274</ele>
        <time>2025-02-21T17:45:19Z</time>
      </trkpt>
      <trkpt lat="44.51353" lon="1.30581">
        <ele>273</ele>
        <time>2025-02-21T17:45:59Z</time>
      </trkpt>
      <trkpt lat="44.51356" lon="1.30589">
        <ele>273</ele>
        <time>2025-02-21T17:46:07Z</time>
      </trkpt>
      <trkpt lat="44.51386" lon="1.3062">
        <ele>268</ele>
        <time>2025-02-21T17:46:57Z</time>
      </trkpt>
      <trkpt lat="44.51401" lon="1.30641">
        <ele>266</ele>
        <time>2025-02-21T17:47:26Z</time>
      </trkpt>
      <trkpt lat="44.51411" lon="1.30663">
        <ele>263</ele>
        <time>2025-02-21T17:47:50Z</time>
      </trkpt>
      <trkpt lat="44.51443" lon="1.30746">
        <ele>265</ele>
        <time>2025-02-21T17:49:20Z</time>
      </trkpt>
      <trkpt lat="44.51482" lon="1.30809">
        <ele>269</ele>
        <time>2025-02-21T17:50:40Z</time>
      </trkpt>
      <trkpt lat="44.51497" lon="1.30851">
        <ele>271</ele>
        <time>2025-02-21T17:51:24Z</time>
      </trkpt>
      <trkpt lat="44.51501" lon="1.30867">
        <ele>271</ele>
        <time>2025-02-21T17:51:40Z</time>
      </trkpt>
      <trkpt lat="44.5151" lon="1.30941">
        <ele>270</ele>
        <time>2025-02-21T17:52:52Z</time>
      </trkpt>
      <trkpt lat="44.51516" lon="1.30969">
        <ele>268</ele>
        <time>2025-02-21T17:53:20Z</time>
      </trkpt>
      <trkpt lat="44.51518" lon="1.30991">
        <ele>267</ele>
        <time>2025-02-21T17:53:41Z</time>
      </trkpt>
      <trkpt lat="44.51527" lon="1.31032">
        <ele>265</ele>
        <time>2025-02-21T17:54:22Z</time>
      </trkpt>
      <trkpt lat="44.51525" lon="1.31033">
        <ele>265</ele>
        <time>2025-02-21T17:54:24Z</time>
      </trkpt>
      <trkpt lat="44.51528" lon="1.31043">
        <ele>264</ele>
        <time>2025-02-21T17:54:35Z</time>
      </trkpt>
      <trkpt lat="44.51522" lon="1.31092">
        <ele>264</ele>
        <time>2025-02-21T17:55:22Z</time>
      </trkpt>
      <trkpt lat="44.51522" lon="1.31149">
        <ele>268</ele>
        <time>2025-02-21T17:56:16Z</time>
      </trkpt>
      <trkpt lat="44.51533" lon="1.31246">
        <ele>276</ele>
        <time>2025-02-21T17:57:50Z</time>
      </trkpt>
      <trkpt lat="44.51537" lon="1.31255">
        <ele>276</ele>
        <time>2025-02-21T17:58:00Z</time>
      </trkpt>
      <trkpt lat="44.51564" lon="1.31265">
        <ele>277</ele>
        <time>2025-02-21T17:58:37Z</time>
      </trkpt>
      <trkpt lat="44.51602" lon="1.31271">
        <ele>277</ele>
        <time>2025-02-21T17:59:28Z</time>
      </trkpt>
      <trkpt lat="44.51625" lon="1.31277">
        <ele>277</ele>
        <time>2025-02-21T17:59:59Z</time>
      </trkpt>
      <trkpt lat="44.51641" lon="1.31283">
        <ele>277</ele>
        <time>2025-02-21T18:00:21Z</time>
      </trkpt>
      <trkpt lat="44.51696" lon="1.31295">
        <ele>274</ele>
        <time>2025-02-21T18:01:36Z</time>
      </trkpt>
      <trkpt lat="44.51741" lon="1.31309">
        <ele>270</ele>
        <time>2025-02-21T18:02:37Z</time>
      </trkpt>
      <trkpt lat="44.51761" lon="1.31318">
        <ele>268</ele>
        <time>2025-02-21T18:03:05Z</time>
      </trkpt>
      <trkpt lat="44.51797" lon="1.3134">
        <ele>265</ele>
        <time>2025-02-21T18:03:58Z</time>
      </trkpt>
      <trkpt lat="44.51837" lon="1.31371">
        <ele>261</ele>
        <time>2025-02-21T18:04:59Z</time>
      </trkpt>
      <trkpt lat="44.51848" lon="1.31381">
        <ele>260</ele>
        <time>2025-02-21T18:05:16Z</time>
      </trkpt>
      <trkpt lat="44.51855" lon="1.3139">
        <ele>259</ele>
        <time>2025-02-21T18:05:29Z</time>
      </trkpt>
      <trkpt lat="44.51881" lon="1.31437">
        <ele>259</ele>
        <time>2025-02-21T18:06:25Z</time>
      </trkpt>
      <trkpt lat="44.51905" lon="1.3149">
        <ele>261</ele>
        <time>2025-02-21T18:07:25Z</time>
      </trkpt>
      <trkpt lat="44.51905" lon="1.31493">
        <ele>261</ele>
        <time>2025-02-21T18:07:28Z</time>
      </trkpt>
      <trkpt lat="44.51981" lon="1.31515">
        <ele>263</ele>
        <time>2025-02-21T18:09:12Z</time>
      </trkpt>
      <trkpt lat="44.52032" lon="1.31552">
        <ele>263</ele>
        <time>2025-02-21T18:10:28Z</time>
      </trkpt>
      <trkpt lat="44.52083" lon="1.31582">
        <ele>261</ele>
        <time>2025-02-21T18:11:42Z</time>
      </trkpt>
      <trkpt lat="44.52125" lon="1.31614">
        <ele>260</ele>
        <time>2025-02-21T18:12:46Z</time>
      </trkpt>
      <trkpt lat="44.52072" lon="1.31636">
        <ele>263</ele>
        <time>2025-02-21T18:13:59Z</time>
      </trkpt>
      <trkpt lat="44.52021" lon="1.31653">
        <ele>268</ele>
        <time>2025-02-21T18:15:09Z</time>
      </trkpt>
      <trkpt lat="44.51986" lon="1.31671">
        <ele>270</ele>
        <time>2025-02-21T18:15:59Z</time>
      </trkpt>
      <trkpt lat="44.51932" lon="1.31703">
        <ele>268</ele>
        <time>2025-02-21T18:17:17Z</time>
      </trkpt>
      <trkpt lat="44.51879" lon="1.3173">
        <ele>267</ele>
        <time>2025-02-21T18:18:33Z</time>
      </trkpt>
      <trkpt lat="44.51847" lon="1.31759">
        <ele>268</ele>
        <time>2025-02-21T18:19:24Z</time>
      </trkpt>
      <trkpt lat="44.51823" lon="1.31779">
        <ele>269</ele>
        <time>2025-02-21T18:20:01Z</time>
      </trkpt>
      <trkpt lat="44.51795" lon="1.31814">
        <ele>270</ele>
        <time>2025-02-21T18:20:51Z</time>
      </trkpt>
      <trkpt lat="44.51767" lon="1.31824">
        <ele>272</ele>
        <time>2025-02-21T18:21:29Z</time>
      </trkpt>
      <trkpt lat="44.51742" lon="1.31851">
        <ele>274</ele>
        <time>2025-02-21T18:22:11Z</time>
      </trkpt>
      <trkpt lat="44.51724" lon="1.31875">
        <ele>274</ele>
        <time>2025-02-21T18:22:45Z</time>
      </trkpt>
      <trkpt lat="44.51701" lon="1.3189">
        <ele>275</ele>
        <time>2025-02-21T18:23:18Z</time>
      </trkpt>
      <trkpt lat="44.51696" lon="1.31901">
        <ele>275</ele>
        <time>2025-02-21T18:23:31Z</time>
      </trkpt>
      <trkpt lat="44.51665" lon="1.3194">
        <ele>276</ele>
        <time>2025-02-21T18:24:26Z</time>
      </trkpt>
      <trkpt lat="44.51642" lon="1.31956">
        <ele>277</ele>
        <time>2025-02-21T18:25:01Z</time>
      </trkpt>
      <trkpt lat="44.5163" lon="1.31968">
        <ele>277</ele>
        <time>2025-02-21T18:25:20Z</time>
      </trkpt>
      <trkpt lat="44.51624" lon="1.31971">
        <ele>277</ele>
        <time>2025-02-21T18:25:29Z</time>
      </trkpt>
      <trkpt lat="44.51609" lon="1.31983">
        <ele>278</ele>
        <time>2025-02-21T18:25:52Z</time>
      </trkpt>
      <trkpt lat="44.51581" lon="1.32011">
        <ele>279</ele>
        <time>2025-02-21T18:26:38Z</time>
      </trkpt>
      <trkpt lat="44.51564" lon="1.32018">
        <ele>279</ele>
        <time>2025-02-21T18:27:01Z</time>
      </trkpt>
      <trkpt lat="44.5155" lon="1.32018">
        <ele>279</ele>
        <time>2025-02-21T18:27:20Z</time>
      </trkpt>
      <trkpt lat="44.51538" lon="1.32016">
        <ele>279</ele>
        <time>2025-02-21T18:27:36Z</time>
      </trkpt>
      <trkpt lat="44.51529" lon="1.32019">
        <ele>280</ele>
        <time>2025-02-21T18:27:49Z</time>
      </trkpt>
      <trkpt lat="44.51531" lon="1.32019">
        <ele>280</ele>
        <time>2025-02-21T18:27:51Z</time>
      </trkpt>
      <trkpt lat="44.51532" lon="1.32021">
        <ele>280</ele>
        <time>2025-02-21T18:27:54Z</time>
      </trkpt>
      <trkpt lat="44.51533" lon="1.3202">
        <ele>280</ele>
        <time>2025-02-21T18:27:55Z</time>
      </trkpt>
      <trkpt lat="44.51529" lon="1.32021">
        <ele>280</ele>
        <time>2025-02-21T18:28:01Z</time>
      </trkpt>
      <trkpt lat="44.51523" lon="1.32026">
        <ele>280</ele>
        <time>2025-02-21T18:28:10Z</time>
      </trkpt>
      <trkpt lat="44.51522" lon="1.32024">
        <ele>280</ele>
        <time>2025-02-21T18:28:12Z</time>
      </trkpt>
      <trkpt lat="44.51516" lon="1.32026">
        <ele>280</ele>
        <time>2025-02-21T18:28:21Z</time>
      </trkpt>
      <trkpt lat="44.51503" lon="1.32038">
        <ele>280</ele>
        <time>2025-02-21T18:28:41Z</time>
      </trkpt>
      <trkpt lat="44.51494" lon="1.32044">
        <ele>280</ele>
        <time>2025-02-21T18:28:55Z</time>
      </trkpt>
      <trkpt lat="44.51487" lon="1.32053">
        <ele>280</ele>
        <time>2025-02-21T18:29:07Z</time>
      </trkpt>
      <trkpt lat="44.5147" lon="1.32082">
        <ele>281</ele>
        <time>2025-02-21T18:29:43Z</time>
      </trkpt>
      <trkpt lat="44.51446" lon="1.32128">
        <ele>281</ele>
        <time>2025-02-21T18:30:37Z</time>
      </trkpt>
      <trkpt lat="44.51431" lon="1.32147">
        <ele>280</ele>
        <time>2025-02-21T18:31:04Z</time>
      </trkpt>
      <trkpt lat="44.51415" lon="1.32175">
        <ele>279</ele>
        <time>2025-02-21T18:31:38Z</time>
      </trkpt>
      <trkpt lat="44.51401" lon="1.32193">
        <ele>278</ele>
        <time>2025-02-21T18:32:04Z</time>
      </trkpt>
      <trkpt lat="44.51389" lon="1.32202">
        <ele>276</ele>
        <time>2025-02-21T18:32:22Z</time>
      </trkpt>
      <trkpt lat="44.5134" lon="1.32219">
        <ele>273</ele>
        <time>2025-02-21T18:33:29Z</time>
      </trkpt>
      <trkpt lat="44.51329" lon="1.32227">
        <ele>272</ele>
        <time>2025-02-21T18:33:46Z</time>
      </trkpt>
      <trkpt lat="44.51328" lon="1.32231">
        <ele>272</ele>
        <time>2025-02-21T18:33:50Z</time>
      </trkpt>
      <trkpt lat="44.51322" lon="1.32233">
        <ele>272</ele>
        <time>2025-02-21T18:33:58Z</time>
      </trkpt>
      <trkpt lat="44.51311" lon="1.32243">
        <ele>271</ele>
        <time>2025-02-21T18:34:16Z</time>
      </trkpt>
      <trkpt lat="44.51292" lon="1.32255">
        <ele>270</ele>
        <time>2025-02-21T18:34:43Z</time>
      </trkpt>
      <trkpt lat="44.51258" lon="1.32285">
        <ele>267</ele>
        <time>2025-02-21T18:35:37Z</time>
      </trkpt>
      <trkpt lat="44.51229" lon="1.32324">
        <ele>264</ele>
        <time>2025-02-21T18:36:31Z</time>
      </trkpt>
      <trkpt lat="44.51218" lon="1.32342">
        <ele>263</ele>
        <time>2025-02-21T18:36:53Z</time>
      </trkpt>
      <trkpt lat="44.51208" lon="1.32364">
        <ele>261</ele>
        <time>2025-02-21T18:37:18Z</time>
      </trkpt>
      <trkpt lat="44.51208" lon="1.3239">
        <ele>258</ele>
        <time>2025-02-21T18:37:43Z</time>
      </trkpt>
      <trkpt lat="44.51217" lon="1.32399">
        <ele>256</ele>
        <time>2025-02-21T18:37:57Z</time>
      </trkpt>
      <trkpt lat="44.51246" lon="1.3242">
        <ele>251</ele>
        <time>2025-02-21T18:38:41Z</time>
      </trkpt>
      <trkpt lat="44.51265" lon="1.32469">
        <ele>246</ele>
        <time>2025-02-21T18:39:34Z</time>
      </trkpt>
      <trkpt lat="44.51267" lon="1.32478">
        <ele>246</ele>
        <time>2025-02-21T18:39:43Z</time>
      </trkpt>
      <trkpt lat="44.51265" lon="1.32503">
        <ele>244</ele>
        <time>2025-02-21T18:40:07Z</time>
      </trkpt>
      <trkpt lat="44.51257" lon="1.32549">
        <ele>240</ele>
        <time>2025-02-21T18:40:52Z</time>
      </trkpt>
      <trkpt lat="44.51231" lon="1.32615">
        <ele>236</ele>
        <time>2025-02-21T18:42:04Z</time>
      </trkpt>
      <trkpt lat="44.51204" lon="1.32704">
        <ele>231</ele>
        <time>2025-02-21T18:43:36Z</time>
      </trkpt>
      <trkpt lat="44.51186" lon="1.327">
        <ele>231</ele>
        <time>2025-02-21T18:44:00Z</time>
      </trkpt>
      <trkpt lat="44.51165" lon="1.3269">
        <ele>230</ele>
        <time>2025-02-21T18:44:30Z</time>
      </trkpt>
      <trkpt lat="44.51149" lon="1.32699">
        <ele>230</ele>
        <time>2025-02-21T18:44:53Z</time>
      </trkpt>
      <trkpt lat="44.51147" lon="1.32734">
        <ele>228</ele>
        <time>2025-02-21T18:45:26Z</time>
      </trkpt>
      <trkpt lat="44.51142" lon="1.32769">
        <ele>227</ele>
        <time>2025-02-21T18:46:00Z</time>
      </trkpt>
      <trkpt lat="44.51138" lon="1.3282">
        <ele>228</ele>
        <time>2025-02-21T18:46:49Z</time>
      </trkpt>
      <trkpt lat="44.51135" lon="1.3284">
        <ele>228</ele>
        <time>2025-02-21T18:47:08Z</time>
      </trkpt>
      <trkpt lat="44.5113" lon="1.32859">
        <ele>228</ele>
        <time>2025-02-21T18:47:28Z</time>
      </trkpt>
      <trkpt lat="44.51126" lon="1.32863">
        <ele>229</ele>
        <time>2025-02-21T18:47:34Z</time>
      </trkpt>
      <trkpt lat="44.51116" lon="1.32863">
        <ele>229</ele>
        <time>2025-02-21T18:47:48Z</time>
      </trkpt>
      <trkpt lat="44.51103" lon="1.32866">
        <ele>229</ele>
        <time>2025-02-21T18:48:05Z</time>
      </trkpt>
      <trkpt lat="44.51099" lon="1.32873">
        <ele>229</ele>
        <time>2025-02-21T18:48:14Z</time>
      </trkpt>
      <trkpt lat="44.51096" lon="1.32874">
        <ele>229</ele>
        <time>2025-02-21T18:48:18Z</time>
      </trkpt>
      <trkpt lat="44.5108" lon="1.3287">
        <ele>229</ele>
        <time>2025-02-21T18:48:39Z</time>
      </trkpt>
      <trkpt lat="44.51065" lon="1.32862">
        <ele>229</ele>
        <time>2025-02-21T18:49:01Z</time>
      </trkpt>
      <trkpt lat="44.51065" lon="1.32863">
        <ele>229</ele>
        <time>2025-02-21T18:49:02Z</time>
      </trkpt>
    </trkseg>
  </trk>
</gpx>